METAR (acronimo di METeorological Air Report) è un messaggio meteo emesso nella maggior parte dei casi in ambito aeroportuale

LIPF - Ferrara, It
Distanza dalla Stazione: 8 km
Ultimo Aggiornamento: Domenica 21 Luglio 2019 17:55 CEST
Sereno
Sereno
 Wind from varies
Vento: variabile 0 km/h
Temperatura: 35°C
Punto di Rugiada: 17°C
Umidità: 34%
Barometro: 1017 hPa
Condizioni: Sereno
Visibilità: superiore a 10 km
2019/07/21 15:55 LIPF 211555Z /////KT CAVOK 35/17 Q1017
LIPE - Bologna Borgo Panigale, It
Distanza dalla Stazione: 46 km
Ultimo Aggiornamento: Domenica 21 Luglio 2019 18:20 CEST
Sereno
Sereno
 Wind from Nord-Nord-Est
Vento: Nord-Nord-Est 9 km/h
Temperatura: 34°C
Punto di Rugiada: 14°C
Umidità: 30%
Barometro: 1017 hPa
Condizioni: Sereno
Visibilità: superiore a 10 km
2019/07/21 16:20 LIPE 211620Z 02005KT 330V060 CAVOK 34/14 Q1017
LIMF - Torino Caselle, It
Distanza dalla Stazione: 320 km
Ultimo Aggiornamento: Domenica 21 Luglio 2019 18:20 CEST
Sereno
Sereno
 Wind from varies
Vento: variabile 4 km/h
Temperatura: 31°C
Heat Index: 33°C
Punto di Rugiada: 20°C
Umidità: 52%
Barometro: 1019 hPa
Condizioni: Sereno
Visibilità: superiore a 10 km
2019/07/21 16:20 LIMF 211620Z VRB02KT CAVOK 31/20 Q1019
 
LIML - Milano Malpensa, It
Distanza dalla Stazione: 249 km
Ultimo Aggiornamento: Domenica 21 Luglio 2019 18:20 CEST
Sereno
Sereno
 Wind from Ovest
Vento: Ovest 9 km/h
Temperatura: 32°C
Heat Index: 36°C
Punto di Rugiada: 21°C
Umidità: 52%
Barometro: 1017 hPa
Condizioni: Sereno
Visibilità: superiore a 10 km
2019/07/21 16:20 LIML 211620Z 26005KT 190V320 CAVOK 32/21 Q1017 NOSIG
LIME - Bergamo Orio al Serio, It
Distanza dalla Stazione: 181 km
Ultimo Aggiornamento: Domenica 21 Luglio 2019 18:20 CEST
Sereno
Sereno
 Wind from Ovest-Sud-Ovest
Vento: Ovest-Sud-Ovest 9 km/h
Temperatura: 31°C
Heat Index: 33°C
Punto di Rugiada: 19°C
Umidità: 49%
Barometro: 1018 hPa
Condizioni: Sereno
Visibilità: superiore a 10 km
2019/07/21 16:20 LIME 211620Z 24005KT 190V280 CAVOK 31/19 Q1018 NOSIG
LIPZ - Venezia Tessera, It
Distanza dalla Stazione: 93 km
Ultimo Aggiornamento: Domenica 21 Luglio 2019 18:20 CEST
Sereno
Sereno
 Wind from Sud-Est
Vento: Sud-Est 11 km/h
Temperatura: 27°C
Heat Index: 30°C
Punto di Rugiada: 23°C
Umidità: 79%
Barometro: 1018 hPa
Condizioni: Sereno
Visibilità: superiore a 10 km
2019/07/21 16:20 LIPZ 211620Z 13006KT CAVOK 27/23 Q1018 NOSIG
 
LIVT - Trieste, It
Distanza dalla Stazione: 179 km
Ultimo Aggiornamento: Domenica 21 Luglio 2019 17:55 CEST
Sereno
Sereno
 Wind from Ovest
Vento: Ovest 6 km/h
Temperatura: 28°C
Heat Index: 31°C
Punto di Rugiada: 23°C
Umidità: 74%
Barometro: 1018 hPa
Condizioni: Sereno
Visibilità: superiore a 10 km
2019/07/21 15:55 LIVT 211555Z 28003KT CAVOK 28/23 Q1018 RMK BKN SCT080 SCT160 QUK 1 QUL 0 VIS MAR 20 KM VIS MIN 9999
LIMJ - Genova, It
Distanza dalla Stazione: 229 km
Ultimo Aggiornamento: Domenica 21 Luglio 2019 18:20 CEST
Qualche Nuvola
Qualche Nuvola
 Wind from Sud-Sud-Est
Vento: Sud-Sud-Est 7 km/h
Temperatura: 26°C
Punto di Rugiada: 21°C
Umidità: 74%
Barometro: 1020 hPa
Nuvole: Qualche Nuvola
Visibilità: 10 km
Nuvole nel Dettaglio: Qualche Nuvola 701 m
2019/07/21 16:20 LIMJ 211620Z 15004KT 9999 FEW023 26/21 Q1020
LIRQ - Firenze Amerigo Vespucci, It
Distanza dalla Stazione: 119 km
Ultimo Aggiornamento: Domenica 21 Luglio 2019 18:20 CEST
Sereno
Sereno
 Wind from Sud-Ovest
Vento: Sud-Ovest 17 km/h
Temperatura: 33°C
Punto di Rugiada: 15°C
Umidità: 34%
Barometro: 1018 hPa
Condizioni: Sereno
Visibilità: superiore a 10 km
2019/07/21 16:20 LIRQ 211620Z 23009KT 210V280 CAVOK 33/15 Q1018
 
LIPY - Ancona, It
Distanza dalla Stazione: 189 km
Ultimo Aggiornamento: Domenica 21 Luglio 2019 17:50 CEST
Sereno
Sereno
 Wind from Est-Nord-Est
Vento: Est-Nord-Est 13 km/h
Temperatura: 30°C
Punto di Rugiada: 14°C
Umidità: 38%
Barometro: 1018 hPa
Condizioni: Sereno
Visibilità: superiore a 10 km
2019/07/21 15:50 LIPY 211550Z 06007KT CAVOK 30/14 Q1018
LIBP - Pescara, It
Distanza dalla Stazione: 333 km
Ultimo Aggiornamento: Domenica 21 Luglio 2019 17:50 CEST
Sereno
Sereno
 Wind from Est-Nord-Est
Vento: Est-Nord-Est 9 km/h
Temperatura: 31°C
Heat Index: 33°C
Punto di Rugiada: 20°C
Umidità: 52%
Barometro: 1018 hPa
Condizioni: Sereno
Visibilità: superiore a 10 km
2019/07/21 15:50 LIBP 211550Z 06005KT 030V090 CAVOK 31/20 Q1018
LIRF - Roma-Fiumicino, It
Distanza dalla Stazione: 334 km
Ultimo Aggiornamento: Domenica 21 Luglio 2019 18:20 CEST
Sereno
Sereno
 Wind from Ovest
Vento: Ovest 20 km/h
Temperatura: 28°C
Heat Index: 29°C
Punto di Rugiada: 20°C
Umidità: 62%
Barometro: 1019 hPa
Condizioni: Sereno
Visibilità: superiore a 10 km
2019/07/21 16:20 LIRF 211620Z 28011KT CAVOK 28/20 Q1019 NOSIG
 
LIRN - Napoli Capodichino, It
Distanza dalla Stazione: 494 km
Ultimo Aggiornamento: Domenica 21 Luglio 2019 18:20 CEST
Sereno
Sereno
 Wind from Nord-Ovest
Vento: Nord-Ovest 19 km/h
Temperatura: 30°C
Punto di Rugiada: 14°C
Umidità: 38%
Barometro: 1019 hPa
Condizioni: Sereno
Visibilità: superiore a 10 km
2019/07/21 16:20 LIRN 211620Z 31010KT CAVOK 30/14 Q1019 NOSIG
LIBD - Bari Palese, It
Distanza dalla Stazione: 594 km
Ultimo Aggiornamento: Domenica 21 Luglio 2019 18:20 CEST
Sereno
Sereno
 Wind from Est-Nord-Est
Vento: Est-Nord-Est 9 km/h
Temperatura: 30°C
Punto di Rugiada: 13°C
Umidità: 35%
Barometro: 1018 hPa
Condizioni: Sereno
Visibilità: superiore a 10 km
2019/07/21 16:20 LIBD 211620Z 07005KT 020V110 CAVOK 30/13 Q1018
LIBG - Taranto Grottaglie, It
Distanza dalla Stazione: 670 km
Ultimo Aggiornamento: Domenica 21 Luglio 2019 17:50 CEST
Sereno
Sereno
 Wind from Nord-Nord-Est
Vento: Nord-Nord-Est 17 km/h
Temperatura: 32°C
Punto di Rugiada: 9°C
Umidità: 24%
Barometro: 1018 hPa
Condizioni: Sereno
Visibilità: superiore a 10 km
2019/07/21 15:50 LIBG 211550Z 02009KT CAVOK 32/09 Q1018
 
LICR - Reggio Calabria, It
Distanza dalla Stazione: 819 km
Ultimo Aggiornamento: Domenica 21 Luglio 2019 17:50 CEST
Sereno
Sereno
 Wind from Nord
Vento: Nord 24 km/h
Temperatura: 29°C
Heat Index: 29°C
Punto di Rugiada: 15°C
Umidità: 43%
Barometro: 1018 hPa
Condizioni: Sereno
Visibilità: superiore a 10 km
2019/07/21 15:50 LICR 211550Z 35013KT CAVOK 29/15 Q1018
LICJ - Palermo Punta Raisi, It
Distanza dalla Stazione: 762 km
Ultimo Aggiornamento: Domenica 21 Luglio 2019 18:20 CEST
Sereno
Sereno
 Wind from Est-Nord-Est
Vento: Est-Nord-Est 30 km/h
Temperatura: 27°C
Heat Index: 29°C
Punto di Rugiada: 22°C
Umidità: 74%
Barometro: 1019 hPa
Condizioni: Sereno
Visibilità: superiore a 10 km
2019/07/21 16:20 LICJ 211620Z 06016KT CAVOK 27/22 Q1019
LICC - Catania Fontanarossa, It
Distanza dalla Stazione: 866 km
Ultimo Aggiornamento: Domenica 21 Luglio 2019 18:20 CEST
Sereno
Sereno
 Wind from Est
Vento: Est 19 km/h
Temperatura: 30°C
Heat Index: 30°C
Punto di Rugiada: 16°C
Umidità: 43%
Barometro: 1018 hPa
Condizioni: Sereno
Visibilità: superiore a 10 km
2019/07/21 16:20 LICC 211620Z 08010KT CAVOK 30/16 Q1018
 
LIEE - Cagliari Elmas, It
Distanza dalla Stazione: 655 km
Ultimo Aggiornamento: Domenica 21 Luglio 2019 18:20 CEST
Sereno
Sereno
 Wind from Sud-Sud-Est
Vento: Sud-Sud-Est 20 km/h
Temperatura: 28°C
Heat Index: 30°C
Punto di Rugiada: 21°C
Umidità: 66%
Barometro: 1019 hPa
Condizioni: Sereno
Visibilità: superiore a 10 km
2019/07/21 16:20 LIEE 211620Z 16011KT CAVOK 28/21 Q1019
LIEO - Olbia, It
Distanza dalla Stazione: 463 km
Ultimo Aggiornamento: Domenica 21 Luglio 2019 18:20 CEST
Sereno
Sereno
 Wind from Est
Vento: Est 15 km/h
Temperatura: 32°C
Punto di Rugiada: 9°C
Umidità: 24%
Barometro: 1019 hPa
Condizioni: Sereno
Visibilità: superiore a 10 km
2019/07/21 16:20 LIEO 211620Z 09008KT 060V140 CAVOK 32/09 Q1019
LICG - Pantelleria, It
Distanza dalla Stazione: 893 km
Ultimo Aggiornamento: Domenica 21 Luglio 2019 17:50 CEST
Sereno
Sereno
 Wind from Nord
Vento: Nord 7 km/h
Temperatura: 27°C
Heat Index: 29°C
Punto di Rugiada: 22°C
Umidità: 74%
Barometro: 1020 hPa
Condizioni: Sereno
Visibilità: superiore a 10 km
2019/07/21 15:50 LICG 211550Z 36004KT CAVOK 27/22 Q1020